CST,Max TemperatureF,Mean TemperatureF,Min TemperatureF,Max Dew PointF,MeanDew PointF,Min DewpointF,Max Humidity, Mean Humidity, Min Humidity, Max Sea Level PressureIn, Mean Sea Level PressureIn, Min Sea Level PressureIn, Max VisibilityMiles, Mean VisibilityMiles, Min VisibilityMiles, Max Wind SpeedMPH, Mean Wind SpeedMPH, Max Gust SpeedMPH,PrecipitationIn, CloudCover, Events, WindDirDegrees
2012-2-1,50,36,22,33,27,21,92,76,48,30.17,30.11,30.03,10,10,7,9,2,13,0.00,0,,245
2012-2-2,49,34,19,32,27,17,93,78,48,30.33,30.25,30.15,10,10,10,10,3,12,0.00,0,,88
2012-2-3,36,33,29,32,29,27,93,89,81,30.45,30.38,30.31,10,8,2,22,13,25,0.00,5,,53
2012-2-4,44,35,25,27,24,16,100,80,31,30.48,30.41,30.35,10,8,1,22,10,26,0.00,5,,4
2012-2-5,38,29,20,27,25,19,100,82,64,30.44,30.36,30.22,10,6,0,14,6,16,0.00,5,Fog,295
2012-2-6,49,35,21,31,23,19,100,73,46,30.34,30.19,30.07,10,5,0,23,7,30,0.00,4,Fog,222
2012-2-7,29,19,9,22,15,5,81,74,63,30.61,30.50,30.31,10,10,10,21,10,28,0.00,6,,19
2012-2-8,30,17,3,14,7,0,84,69,43,30.59,30.45,30.29,10,10,10,10,2,13,0.00,0,,248
2012-2-9,40,27,14,25,18,4,92,72,51,30.26,30.10,29.92,10,10,10,24,8,35,0.00,2,,243
2012-2-10,17,9,0,2,-6,-10,69,58,46,30.72,30.46,30.22,10,10,10,28,18,35,0.00,0,,355
2012-2-11,21,8,-5,-6,-8,-12,72,53,33,30.81,30.69,30.52,10,10,10,18,7,23,0.00,0,,301
2012-2-12,33,15,-3,9,1,-7,79,53,26,30.61,30.34,30.02,10,10,10,22,9,26,0.00,1,,189
2012-2-13,28,24,20,22,19,10,96,76,55,29.99,29.80,29.70,10,5,0,16,8,22,0.03,7,Fog-Snow,187
2012-2-14,44,29,14,31,21,15,96,85,62,29.85,29.75,29.69,10,7,0,13,4,16,0.00,5,Fog,199
2012-2-15,43,32,20,34,26,18,93,78,55,30.15,29.97,29.80,10,9,4,17,7,22,T,6,Rain-Snow,339
2012-2-16,44,32,19,25,19,14,85,66,32,30.25,30.14,30.02,10,10,10,17,8,23,0.00,0,,245
2012-2-17,38,28,17,26,16,11,88,65,37,30.27,30.15,29.95,10,10,10,24,9,32,0.00,1,,301
2012-2-18,41,26,10,21,15,7,85,64,38,30.30,30.21,30.09,10,10,10,15,6,22,0.00,0,,175
2012-2-19,44,34,23,26,22,17,75,60,45,30.11,30.02,29.95,10,10,10,24,14,31,0.00,1,,168
2012-2-20,37,35,33,35,29,23,96,78,59,29.96,29.72,29.60,10,5,0,23,14,30,0.47,8,Rain-Snow,161
2012-2-21,37,33,28,30,26,21,93,78,59,29.77,29.70,29.60,10,10,4,22,11,33,0.00,4,,280
2012-2-22,45,37,28,34,29,26,88,77,56,29.58,29.48,29.40,10,10,10,17,5,22,T,4,,289
2012-2-23,35,30,25,30,28,19,92,82,72,29.86,29.55,29.35,10,4,0,26,12,35,0.45,8,Fog-Rain-Snow,19
2012-2-24,28,21,13,22,16,8,92,80,68,30.26,30.05,29.87,10,8,1,31,12,38,T,6,Snow,303
2012-2-25,24,12,0,16,8,0,86,77,67,30.33,30.13,29.77,10,10,9,25,12,35,0.00,0,,148
2012-2-26,36,26,16,28,16,10,78,68,58,30.28,29.93,29.58,10,10,9,32,19,46,0.00,4,,270
2012-2-27,27,18,9,20,12,5,84,75,63,30.54,30.42,30.21,10,10,9,20,9,26,T,2,Snow,266
2012-2-28,35,31,27,34,28,21,96,86,75,30.28,29.87,29.25,10,7,2,33,15,41,1.41,8,Rain-Snow-Thunderstorm,123
2012-2-29,35,31,27,34,29,23,92,88,84,29.85,29.39,29.15,10,6,1,28,17,36,0.07,8,Rain-Snow,329